BER109 EGKK-EDDF
Flight info
| Callsign | BER109 |
|---|---|
| Flight time | 1h 0m |
| Altitude | 37000 |
| Route | MIMFO Y312 DVR UL9 KONAN UL607 SPI T180 NIVNU/N0415F230 T847 IMCOM IMCOM1B |
| Aircraft | B738/M-SDE2E3FGHIRWXY/LB1 |
Departure
| Time | 2026-05-04 14:22 |
|---|---|
| Airport | London Gatwick Airport (EGKK) |
Arrival
| Time | 2026-05-04 15:23 |
|---|---|
| Airport | Frankfurt Main Airport (EDDF) |
| Time | Latitude | Longitude | Altitude | Speed | Heading |
|---|---|---|---|---|---|
| 2026-05-04 13:48 | 51.16025 | -0.18011 | 204 ft | 0 kts | 78° |
| 2026-05-04 13:48 | 51.16026 | -0.18008 | 204 ft | 0 kts | 77° |
| 2026-05-04 14:10 | 51.16021 | -0.18042 | 213 ft | 4 kts | 77° |
| 2026-05-04 14:11 | 51.16016 | -0.18076 | 208 ft | 4 kts | 78° |
| 2026-05-04 14:11 | 51.16030 | -0.18146 | 214 ft | 4 kts | 158° |
| 2026-05-04 14:11 | 51.16055 | -0.18157 | 212 ft | 4 kts | 167° |
| 2026-05-04 14:12 | 51.16081 | -0.18166 | 216 ft | 4 kts | 167° |
| 2026-05-04 14:12 | 51.16103 | -0.18173 | 213 ft | 0 kts | 167° |
| 2026-05-04 14:14 | 51.16002 | -0.18139 | 211 ft | 15 kts | 167° |
| 2026-05-04 14:14 | 51.15907 | -0.18105 | 204 ft | 14 kts | 168° |
| 2026-05-04 14:15 | 51.15729 | -0.18044 | 211 ft | 10 kts | 169° |
| 2026-05-04 14:15 | 51.15650 | -0.18323 | 206 ft | 23 kts | 258° |
| 2026-05-04 14:16 | 51.15583 | -0.18793 | 210 ft | 17 kts | 244° |
| 2026-05-04 14:16 | 51.15482 | -0.18809 | 208 ft | 15 kts | 168° |
| 2026-05-04 14:17 | 51.15262 | -0.18732 | 214 ft | 16 kts | 167° |
| 2026-05-04 14:17 | 51.15157 | -0.18705 | 210 ft | 15 kts | 197° |
| 2026-05-04 14:17 | 51.15089 | -0.19043 | 208 ft | 24 kts | 258° |
| 2026-05-04 14:18 | 51.15054 | -0.19297 | 207 ft | 23 kts | 257° |
| 2026-05-04 14:18 | 51.14989 | -0.19779 | 204 ft | 22 kts | 256° |
| 2026-05-04 14:19 | 51.14925 | -0.20232 | 208 ft | 21 kts | 258° |
| 2026-05-04 14:19 | 51.14892 | -0.20472 | 205 ft | 23 kts | 256° |
| 2026-05-04 14:19 | 51.14858 | -0.20717 | 204 ft | 22 kts | 257° |
| 2026-05-04 14:19 | 51.14824 | -0.20958 | 212 ft | 22 kts | 258° |
| 2026-05-04 14:20 | 51.14791 | -0.21163 | 215 ft | 16 kts | 243° |
| 2026-05-04 14:20 | 51.14764 | -0.21328 | 204 ft | 15 kts | 259° |
| 2026-05-04 14:20 | 51.14692 | -0.21398 | 210 ft | 14 kts | 165° |
| 2026-05-04 14:21 | 51.14621 | -0.21333 | 211 ft | 1 kts | 167° |
| 2026-05-04 14:21 | 51.14614 | -0.21330 | 211 ft | 1 kts | 167° |
| 2026-05-04 14:21 | 51.14579 | -0.21315 | 210 ft | 11 kts | 161° |
| 2026-05-04 14:21 | 51.14525 | -0.21238 | 211 ft | 12 kts | 115° |
| 2026-05-04 14:22 | 51.14530 | -0.21099 | 209 ft | 18 kts | 78° |
| 2026-05-04 14:22 | 51.14608 | -0.20528 | 211 ft | 90 kts | 78° |
| 2026-05-04 14:22 | 51.14791 | -0.19202 | 213 ft | 153 kts | 77° |
| 2026-05-04 14:22 | 51.15034 | -0.17459 | 831 ft | 163 kts | 78° |
| 2026-05-04 14:23 | 51.15537 | -0.13766 | 2439 ft | 183 kts | 77° |
| 2026-05-04 14:23 | 51.15847 | -0.11647 | 2877 ft | 206 kts | 77° |
| 2026-05-04 14:23 | 51.16171 | -0.09271 | 3084 ft | 231 kts | 77° |
| 2026-05-04 14:24 | 51.16519 | -0.06689 | 3563 ft | 243 kts | 77° |
| 2026-05-04 14:24 | 51.16870 | -0.04003 | 4057 ft | 256 kts | 81° |
| 2026-05-04 14:24 | 51.16945 | -0.01097 | 4723 ft | 267 kts | 91° |
| 2026-05-04 14:24 | 51.16882 | 0.01294 | 5437 ft | 269 kts | 92° |
| 2026-05-04 14:25 | 51.16790 | 0.04360 | 6291 ft | 274 kts | 92° |
| 2026-05-04 14:25 | 51.16647 | 0.10529 | 7907 ft | 282 kts | 92° |
| 2026-05-04 14:25 | 51.16585 | 0.13672 | 8737 ft | 285 kts | 92° |
| 2026-05-04 14:26 | 51.16537 | 0.16852 | 9532 ft | 289 kts | 91° |
| 2026-05-04 14:26 | 51.16544 | 0.20074 | 10315 ft | 293 kts | 90° |
| 2026-05-04 14:26 | 51.16562 | 0.23330 | 11071 ft | 296 kts | 90° |
| 2026-05-04 14:26 | 51.16575 | 0.26689 | 11483 ft | 314 kts | 91° |
| 2026-05-04 14:27 | 51.16582 | 0.30296 | 11674 ft | 337 kts | 90° |
| 2026-05-04 14:27 | 51.16587 | 0.34154 | 11936 ft | 356 kts | 91° |
| 2026-05-04 14:27 | 51.16591 | 0.38141 | 12534 ft | 363 kts | 91° |
| 2026-05-04 14:27 | 51.16593 | 0.42180 | 13329 ft | 365 kts | 91° |
| 2026-05-04 14:28 | 51.16594 | 0.46240 | 14019 ft | 370 kts | 91° |
| 2026-05-04 14:28 | 51.16594 | 0.50363 | 14662 ft | 373 kts | 91° |
| 2026-05-04 14:28 | 51.16593 | 0.54508 | 15349 ft | 375 kts | 91° |
| 2026-05-04 14:28 | 51.16591 | 0.58676 | 16022 ft | 378 kts | 91° |
| 2026-05-04 14:29 | 51.16583 | 0.67167 | 17040 ft | 393 kts | 91° |
| 2026-05-04 14:29 | 51.16567 | 0.76068 | 17922 ft | 407 kts | 91° |
| 2026-05-04 14:30 | 51.16558 | 0.80590 | 18555 ft | 409 kts | 91° |
| 2026-05-04 14:30 | 51.16547 | 0.85138 | 19068 ft | 412 kts | 92° |
| 2026-05-04 14:30 | 51.16518 | 0.94369 | 20030 ft | 420 kts | 92° |
| 2026-05-04 14:31 | 51.16501 | 0.99036 | 20522 ft | 423 kts | 92° |
| 2026-05-04 14:31 | 51.16460 | 1.08471 | 21464 ft | 429 kts | 92° |
| 2026-05-04 14:32 | 51.16411 | 1.18053 | 22370 ft | 436 kts | 92° |
| 2026-05-04 14:32 | 51.16383 | 1.22892 | 22797 ft | 439 kts | 92° |
| 2026-05-04 14:32 | 51.16354 | 1.27779 | 23219 ft | 442 kts | 92° |
| 2026-05-04 14:32 | 51.16322 | 1.32696 | 23620 ft | 446 kts | 93° |
| 2026-05-04 14:33 | 51.16261 | 1.37635 | 23963 ft | 448 kts | 95° |
| 2026-05-04 14:33 | 51.16076 | 1.42599 | 24334 ft | 449 kts | 96° |
| 2026-05-04 14:33 | 51.15827 | 1.47506 | 24692 ft | 451 kts | 97° |
| 2026-05-04 14:33 | 51.15553 | 1.52488 | 25039 ft | 453 kts | 97° |
| 2026-05-04 14:34 | 51.15281 | 1.57501 | 25381 ft | 455 kts | 97° |
| 2026-05-04 14:34 | 51.15015 | 1.62539 | 25711 ft | 457 kts | 97° |
| 2026-05-04 14:34 | 51.14757 | 1.67593 | 26039 ft | 459 kts | 97° |
| 2026-05-04 14:34 | 51.14501 | 1.72675 | 26359 ft | 461 kts | 97° |
| 2026-05-04 14:35 | 51.14244 | 1.77784 | 26680 ft | 463 kts | 97° |
| 2026-05-04 14:35 | 51.13984 | 1.82916 | 26989 ft | 465 kts | 97° |
| 2026-05-04 14:35 | 51.13721 | 1.88060 | 27287 ft | 467 kts | 97° |
| 2026-05-04 14:35 | 51.13455 | 1.93219 | 27588 ft | 469 kts | 97° |
| 2026-05-04 14:36 | 51.13184 | 1.98399 | 27879 ft | 470 kts | 97° |
| 2026-05-04 14:36 | 51.12910 | 2.03597 | 28163 ft | 472 kts | 98° |
| 2026-05-04 14:36 | 51.12633 | 2.08810 | 28515 ft | 472 kts | 98° |
| 2026-05-04 14:36 | 51.12355 | 2.14010 | 28951 ft | 470 kts | 98° |
| 2026-05-04 14:37 | 51.12078 | 2.19173 | 29424 ft | 467 kts | 98° |
| 2026-05-04 14:37 | 51.11799 | 2.24320 | 29867 ft | 466 kts | 98° |
| 2026-05-04 14:37 | 51.11518 | 2.29446 | 30215 ft | 465 kts | 98° |
| 2026-05-04 14:37 | 51.11235 | 2.34582 | 30495 ft | 465 kts | 98° |
| 2026-05-04 14:38 | 51.10949 | 2.39709 | 30758 ft | 466 kts | 98° |
| 2026-05-04 14:38 | 51.10661 | 2.44846 | 31051 ft | 466 kts | 99° |
| 2026-05-04 14:38 | 51.10372 | 2.49970 | 31354 ft | 465 kts | 99° |
| 2026-05-04 14:38 | 51.10081 | 2.55105 | 31645 ft | 465 kts | 99° |
| 2026-05-04 14:39 | 51.09792 | 2.60162 | 31923 ft | 465 kts | 99° |
| 2026-05-04 14:39 | 51.09440 | 2.65327 | 32182 ft | 463 kts | 103° |
| 2026-05-04 14:39 | 51.08710 | 2.70282 | 32460 ft | 459 kts | 110° |
| 2026-05-04 14:40 | 51.06905 | 2.79989 | 33070 ft | 457 kts | 111° |
| 2026-05-04 14:40 | 51.06001 | 2.84758 | 33335 ft | 457 kts | 111° |
| 2026-05-04 14:40 | 51.05082 | 2.89659 | 33620 ft | 456 kts | 111° |
| 2026-05-04 14:40 | 51.04197 | 2.94429 | 33885 ft | 456 kts | 111° |
| 2026-05-04 14:41 | 51.03307 | 2.99264 | 34118 ft | 456 kts | 111° |
| 2026-05-04 14:41 | 51.02418 | 3.04101 | 34338 ft | 456 kts | 111° |
| 2026-05-04 14:41 | 51.00639 | 3.13778 | 34723 ft | 457 kts | 111° |
| 2026-05-04 14:42 | 50.98849 | 3.23456 | 35128 ft | 457 kts | 111° |
| 2026-05-04 14:42 | 50.97949 | 3.28299 | 35316 ft | 457 kts | 111° |
| 2026-05-04 14:42 | 50.97048 | 3.33134 | 35490 ft | 458 kts | 110° |
| 2026-05-04 14:43 | 50.96143 | 3.37978 | 35691 ft | 458 kts | 110° |
| 2026-05-04 14:43 | 50.95237 | 3.42816 | 35885 ft | 458 kts | 110° |
| 2026-05-04 14:43 | 50.94329 | 3.47648 | 36058 ft | 458 kts | 110° |
| 2026-05-04 14:43 | 50.93419 | 3.52484 | 36230 ft | 458 kts | 110° |
| 2026-05-04 14:44 | 50.92505 | 3.57333 | 36413 ft | 458 kts | 110° |
| 2026-05-04 14:44 | 50.91591 | 3.62167 | 36583 ft | 458 kts | 110° |
| 2026-05-04 14:44 | 50.90670 | 3.66999 | 36751 ft | 459 kts | 110° |
| 2026-05-04 14:44 | 50.89737 | 3.71842 | 36920 ft | 459 kts | 110° |
| 2026-05-04 14:45 | 50.87855 | 3.81532 | 36954 ft | 462 kts | 110° |
| 2026-05-04 14:45 | 50.85967 | 3.91225 | 36954 ft | 459 kts | 110° |
| 2026-05-04 14:46 | 50.84087 | 4.00849 | 36965 ft | 456 kts | 110° |
| 2026-05-04 14:46 | 50.82211 | 4.10399 | 36962 ft | 454 kts | 111° |
| 2026-05-04 14:47 | 50.80329 | 4.19933 | 36971 ft | 453 kts | 111° |
| 2026-05-04 14:47 | 50.78444 | 4.29435 | 36970 ft | 454 kts | 111° |
| 2026-05-04 14:48 | 50.76543 | 4.38969 | 36976 ft | 455 kts | 111° |
| 2026-05-04 14:48 | 50.74632 | 4.48513 | 36964 ft | 457 kts | 111° |
| 2026-05-04 14:49 | 50.72704 | 4.58096 | 36970 ft | 459 kts | 111° |
| 2026-05-04 14:49 | 50.70797 | 4.67742 | 36979 ft | 461 kts | 111° |
| 2026-05-04 14:50 | 50.68927 | 4.77433 | 36971 ft | 463 kts | 110° |
| 2026-05-04 14:50 | 50.67033 | 4.87162 | 36977 ft | 464 kts | 111° |
| 2026-05-04 14:51 | 50.65434 | 4.95242 | 36977 ft | 465 kts | 111° |
| 2026-05-04 14:51 | 50.63450 | 5.04930 | 36973 ft | 466 kts | 112° |
| 2026-05-04 14:52 | 50.61447 | 5.14629 | 36979 ft | 465 kts | 112° |
| 2026-05-04 14:52 | 50.59445 | 5.24318 | 36989 ft | 466 kts | 112° |
| 2026-05-04 14:53 | 50.57436 | 5.34011 | 36995 ft | 466 kts | 112° |
| 2026-05-04 14:53 | 50.55419 | 5.43703 | 36991 ft | 466 kts | 112° |
| 2026-05-04 14:54 | 50.53401 | 5.53354 | 36987 ft | 465 kts | 112° |
| 2026-05-04 14:54 | 50.51378 | 5.62982 | 36985 ft | 464 kts | 112° |
| 2026-05-04 14:55 | 50.49512 | 5.72686 | 36982 ft | 464 kts | 110° |
| 2026-05-04 14:55 | 50.47735 | 5.82427 | 36985 ft | 464 kts | 110° |
| 2026-05-04 14:56 | 50.45921 | 5.92196 | 36371 ft | 469 kts | 110° |
| 2026-05-04 14:56 | 50.45000 | 5.97090 | 35788 ft | 467 kts | 111° |
| 2026-05-04 14:56 | 50.44077 | 6.01973 | 35154 ft | 467 kts | 111° |
| 2026-05-04 14:57 | 50.43152 | 6.06843 | 34502 ft | 467 kts | 111° |
| 2026-05-04 14:57 | 50.42221 | 6.11728 | 33826 ft | 467 kts | 112° |
| 2026-05-04 14:57 | 50.41289 | 6.16608 | 33052 ft | 468 kts | 111° |
| 2026-05-04 14:57 | 50.40354 | 6.21498 | 32345 ft | 467 kts | 111° |
| 2026-05-04 14:58 | 50.39421 | 6.26371 | 31605 ft | 467 kts | 111° |
| 2026-05-04 14:58 | 50.38485 | 6.31243 | 30869 ft | 467 kts | 111° |
| 2026-05-04 14:58 | 50.37544 | 6.36117 | 30117 ft | 468 kts | 111° |
| 2026-05-04 14:58 | 50.36603 | 6.41007 | 29244 ft | 469 kts | 109° |
| 2026-05-04 14:59 | 50.35727 | 6.45926 | 28344 ft | 469 kts | 110° |
| 2026-05-04 14:59 | 50.34784 | 6.50804 | 27579 ft | 466 kts | 111° |
| 2026-05-04 14:59 | 50.32870 | 6.60373 | 26422 ft | 455 kts | 111° |
| 2026-05-04 15:00 | 50.31950 | 6.65037 | 26032 ft | 446 kts | 111° |
| 2026-05-04 15:00 | 50.31041 | 6.69676 | 25288 ft | 446 kts | 111° |
| 2026-05-04 15:00 | 50.30134 | 6.74294 | 24588 ft | 442 kts | 111° |
| 2026-05-04 15:01 | 50.28350 | 6.83363 | 22892 ft | 432 kts | 110° |
| 2026-05-04 15:01 | 50.27466 | 6.87825 | 21986 ft | 428 kts | 110° |
| 2026-05-04 15:01 | 50.26589 | 6.92240 | 21194 ft | 423 kts | 110° |
| 2026-05-04 15:01 | 50.25718 | 6.96611 | 20487 ft | 420 kts | 110° |
| 2026-05-04 15:02 | 50.24850 | 7.00955 | 19841 ft | 418 kts | 110° |
| 2026-05-04 15:02 | 50.23985 | 7.05274 | 19281 ft | 415 kts | 110° |
| 2026-05-04 15:02 | 50.23127 | 7.09552 | 18746 ft | 411 kts | 110° |
| 2026-05-04 15:02 | 50.22285 | 7.13741 | 18197 ft | 408 kts | 110° |
| 2026-05-04 15:03 | 50.21439 | 7.17941 | 17606 ft | 404 kts | 110° |
| 2026-05-04 15:03 | 50.20598 | 7.22109 | 17039 ft | 400 kts | 110° |
| 2026-05-04 15:03 | 50.19765 | 7.26229 | 16502 ft | 396 kts | 110° |
| 2026-05-04 15:03 | 50.18940 | 7.30300 | 15971 ft | 392 kts | 110° |
| 2026-05-04 15:04 | 50.18121 | 7.34330 | 15450 ft | 388 kts | 110° |
| 2026-05-04 15:04 | 50.17311 | 7.38315 | 14946 ft | 384 kts | 110° |
| 2026-05-04 15:04 | 50.16505 | 7.42267 | 14466 ft | 380 kts | 110° |
| 2026-05-04 15:04 | 50.15706 | 7.46177 | 13978 ft | 377 kts | 110° |
| 2026-05-04 15:05 | 50.14910 | 7.50064 | 13434 ft | 374 kts | 110° |
| 2026-05-04 15:05 | 50.14122 | 7.53908 | 12896 ft | 371 kts | 110° |
| 2026-05-04 15:05 | 50.13340 | 7.57719 | 12371 ft | 368 kts | 111° |
| 2026-05-04 15:05 | 50.12561 | 7.61504 | 11864 ft | 365 kts | 111° |
| 2026-05-04 15:06 | 50.11788 | 7.65251 | 11376 ft | 362 kts | 111° |
| 2026-05-04 15:06 | 50.10932 | 7.68927 | 11050 ft | 359 kts | 121° |
| 2026-05-04 15:06 | 50.09571 | 7.72175 | 11045 ft | 359 kts | 128° |
| 2026-05-04 15:07 | 50.06684 | 7.78482 | 11007 ft | 356 kts | 129° |
| 2026-05-04 15:07 | 50.05259 | 7.81638 | 11001 ft | 356 kts | 128° |
| 2026-05-04 15:07 | 50.03864 | 7.84756 | 10989 ft | 354 kts | 128° |
| 2026-05-04 15:07 | 50.02459 | 7.87906 | 10997 ft | 355 kts | 128° |
| 2026-05-04 15:08 | 50.01050 | 7.91138 | 10986 ft | 358 kts | 123° |
| 2026-05-04 15:08 | 50.00218 | 7.94757 | 10986 ft | 367 kts | 101° |
| 2026-05-04 15:08 | 50.00259 | 7.98735 | 10980 ft | 374 kts | 81° |
| 2026-05-04 15:08 | 50.01061 | 8.02574 | 10987 ft | 370 kts | 72° |
| 2026-05-04 15:09 | 50.01981 | 8.06239 | 10988 ft | 358 kts | 71° |
| 2026-05-04 15:09 | 50.02889 | 8.09789 | 10866 ft | 348 kts | 71° |
| 2026-05-04 15:09 | 50.03769 | 8.13263 | 10585 ft | 344 kts | 71° |
| 2026-05-04 15:10 | 50.05481 | 8.20192 | 9859 ft | 342 kts | 72° |
| 2026-05-04 15:10 | 50.06322 | 8.23646 | 9479 ft | 340 kts | 72° |
| 2026-05-04 15:10 | 50.07904 | 8.30160 | 9188 ft | 304 kts | 72° |
| 2026-05-04 15:11 | 50.08628 | 8.33151 | 9056 ft | 290 kts | 72° |
| 2026-05-04 15:11 | 50.09330 | 8.36071 | 8994 ft | 287 kts | 72° |
| 2026-05-04 15:11 | 50.10030 | 8.38981 | 8987 ft | 285 kts | 73° |
| 2026-05-04 15:11 | 50.10725 | 8.41875 | 8971 ft | 285 kts | 72° |
| 2026-05-04 15:12 | 50.11419 | 8.44772 | 8986 ft | 287 kts | 72° |
| 2026-05-04 15:12 | 50.12116 | 8.47687 | 8981 ft | 288 kts | 72° |
| 2026-05-04 15:12 | 50.12817 | 8.50617 | 8978 ft | 289 kts | 72° |
| 2026-05-04 15:12 | 50.13517 | 8.53547 | 8952 ft | 287 kts | 72° |
| 2026-05-04 15:13 | 50.14208 | 8.56438 | 8877 ft | 282 kts | 73° |
| 2026-05-04 15:13 | 50.14893 | 8.59308 | 8697 ft | 282 kts | 72° |
| 2026-05-04 15:13 | 50.15571 | 8.62157 | 8469 ft | 280 kts | 72° |
| 2026-05-04 15:13 | 50.16246 | 8.64999 | 8143 ft | 281 kts | 72° |
| 2026-05-04 15:14 | 50.16924 | 8.67856 | 7818 ft | 279 kts | 72° |
| 2026-05-04 15:14 | 50.17597 | 8.70687 | 7416 ft | 278 kts | 72° |
| 2026-05-04 15:14 | 50.18266 | 8.73510 | 6999 ft | 278 kts | 72° |
| 2026-05-04 15:14 | 50.18931 | 8.76317 | 6656 ft | 275 kts | 71° |
| 2026-05-04 15:15 | 50.19589 | 8.79096 | 6300 ft | 273 kts | 71° |
| 2026-05-04 15:15 | 50.20248 | 8.81894 | 6029 ft | 273 kts | 71° |
| 2026-05-04 15:15 | 50.20899 | 8.84660 | 6002 ft | 271 kts | 71° |
| 2026-05-04 15:16 | 50.22151 | 8.90083 | 5729 ft | 253 kts | 77° |
| 2026-05-04 15:16 | 50.22175 | 8.92754 | 5388 ft | 246 kts | 107° |
| 2026-05-04 15:16 | 50.19901 | 8.96313 | 4588 ft | 239 kts | 168° |
| 2026-05-04 15:17 | 50.18282 | 8.96821 | 4330 ft | 237 kts | 173° |
| 2026-05-04 15:17 | 50.15136 | 8.96296 | 4018 ft | 230 kts | 218° |
| 2026-05-04 15:17 | 50.13899 | 8.94739 | 4011 ft | 227 kts | 223° |
| 2026-05-04 15:18 | 50.12726 | 8.93138 | 3996 ft | 226 kts | 225° |
| 2026-05-04 15:18 | 50.11826 | 8.91178 | 4003 ft | 223 kts | 248° |
| 2026-05-04 15:18 | 50.11241 | 8.88908 | 4009 ft | 227 kts | 250° |
| 2026-05-04 15:19 | 50.10135 | 8.84212 | 3784 ft | 233 kts | 250° |
| 2026-05-04 15:19 | 50.09581 | 8.81902 | 3483 ft | 223 kts | 250° |
| 2026-05-04 15:19 | 50.08521 | 8.77509 | 2918 ft | 214 kts | 251° |
| 2026-05-04 15:20 | 50.08000 | 8.75333 | 2617 ft | 214 kts | 251° |
| 2026-05-04 15:20 | 50.07478 | 8.73163 | 2328 ft | 214 kts | 251° |
| 2026-05-04 15:20 | 50.06964 | 8.71021 | 2042 ft | 208 kts | 251° |
| 2026-05-04 15:20 | 50.06471 | 8.68963 | 1770 ft | 199 kts | 250° |
| 2026-05-04 15:21 | 50.05998 | 8.66991 | 1505 ft | 190 kts | 251° |
| 2026-05-04 15:21 | 50.05554 | 8.65129 | 1260 ft | 176 kts | 250° |
| 2026-05-04 15:21 | 50.04755 | 8.61794 | 848 ft | 157 kts | 251° |
| 2026-05-04 15:22 | 50.04384 | 8.60238 | 614 ft | 149 kts | 250° |
| 2026-05-04 15:22 | 50.04042 | 8.58807 | 448 ft | 136 kts | 249° |
| 2026-05-04 15:22 | 50.03510 | 8.56572 | 354 ft | 59 kts | 249° |
| 2026-05-04 15:23 | 50.03436 | 8.56153 | 358 ft | 35 kts | 266° |
| 2026-05-04 15:23 | 50.03464 | 8.55813 | 351 ft | 18 kts | 279° |
| 2026-05-04 15:23 | 50.03529 | 8.55707 | 353 ft | 14 kts | 15° |
| 2026-05-04 15:23 | 50.03578 | 8.55832 | 352 ft | 14 kts | 70° |
| 2026-05-04 15:24 | 50.03660 | 8.56178 | 354 ft | 20 kts | 70° |
| 2026-05-04 15:24 | 50.03755 | 8.56575 | 360 ft | 22 kts | 68° |
| 2026-05-04 15:25 | 50.03808 | 8.56796 | 352 ft | 22 kts | 70° |
| 2026-05-04 15:25 | 50.03860 | 8.57011 | 358 ft | 21 kts | 68° |
| 2026-05-04 15:25 | 50.03909 | 8.57220 | 360 ft | 20 kts | 70° |
| 2026-05-04 15:26 | 50.04004 | 8.57618 | 366 ft | 19 kts | 69° |
| 2026-05-04 15:26 | 50.04059 | 8.57845 | 368 ft | 23 kts | 69° |
| 2026-05-04 15:26 | 50.04195 | 8.58177 | 365 ft | 16 kts | 21° |
| 2026-05-04 15:27 | 50.04301 | 8.58194 | 368 ft | 15 kts | 341° |
| 2026-05-04 15:27 | 50.04510 | 8.58075 | 368 ft | 17 kts | 339° |
| 2026-05-04 15:28 | 50.04738 | 8.57958 | 357 ft | 16 kts | 7° |
| 2026-05-04 15:28 | 50.04772 | 8.57986 | 365 ft | 1 kts | 41° |
| 2026-05-04 15:28 | 50.04826 | 8.58147 | 361 ft | 10 kts | 69° |
| 2026-05-04 15:29 | 50.04848 | 8.58240 | 361 ft | 6 kts | 69° |
| 2026-05-04 15:30 | 50.04787 | 8.58341 | 363 ft | 0 kts | 160° |